createdAt,value
2023-09-29T00:04:33.518Z,101029.17
2023-09-29T00:09:35.537Z,101027.61
2023-09-29T00:14:37.084Z,101026.52
2023-09-29T00:19:38.604Z,101023.91
2023-09-29T00:24:40.541Z,101024.77
2023-09-29T00:29:42.375Z,101029.92
2023-09-29T00:34:43.939Z,101026.11
2023-09-29T00:39:45.532Z,101032.49
2023-09-29T00:44:47.089Z,101026.80
2023-09-29T00:49:50.087Z,101025.46
2023-09-29T00:54:52.619Z,101027.20
2023-09-29T00:59:54.622Z,101028.91
2023-09-29T01:04:56.207Z,101036.30
2023-09-29T01:09:58.243Z,101034.90
2023-09-29T01:14:59.963Z,101032.97
2023-09-29T01:20:01.620Z,101031.20
2023-09-29T01:25:03.651Z,101027.39
2023-09-29T01:30:06.263Z,101023.88
2023-09-29T01:35:09.363Z,101023.45
2023-09-29T01:40:11.394Z,101021.60
2023-09-29T01:45:13.164Z,101018.71
2023-09-29T01:50:20.047Z,101020.14
2023-09-29T01:55:23.851Z,101016.45
2023-09-29T02:00:26.350Z,101017.95
2023-09-29T02:05:28.561Z,101022.39
2023-09-29T02:10:30.292Z,101019.00
2023-09-29T02:15:35.645Z,101021.44
2023-09-29T02:20:40.413Z,101018.83
2023-09-29T02:25:43.402Z,101017.79
2023-09-29T02:30:47.604Z,101012.20
2023-09-29T02:35:49.273Z,101010.77
2023-09-29T02:40:52.070Z,101010.40
2023-09-29T02:45:53.576Z,101006.64
2023-09-29T02:50:56.230Z,101006.16
2023-09-29T02:55:58.209Z,101008.77
2023-09-29T03:01:00.139Z,101000.53
2023-09-29T03:06:01.812Z,101001.46
2023-09-29T03:11:07.929Z,100998.42
2023-09-29T03:16:09.717Z,101001.61
2023-09-29T03:21:11.245Z,100997.55
2023-09-29T03:26:23.830Z,100999.21
2023-09-29T03:31:28.157Z,100997.27
2023-09-29T03:36:32.635Z,101001.20
2023-09-29T03:41:34.765Z,101002.52
2023-09-29T03:46:36.423Z,101001.96
2023-09-29T03:51:39.859Z,101001.70
2023-09-29T03:56:41.527Z,100998.02
2023-09-29T04:01:43.129Z,100989.65
2023-09-29T04:06:44.759Z,100987.77
2023-09-29T04:11:46.340Z,100982.86
2023-09-29T04:16:47.908Z,100979.51
2023-09-29T04:21:49.573Z,100977.23
2023-09-29T04:26:51.238Z,100985.80
2023-09-29T04:31:52.801Z,100984.92
2023-09-29T04:36:54.942Z,100982.88
2023-09-29T04:41:56.649Z,100982.02
2023-09-29T04:46:58.309Z,100981.67
2023-09-29T04:51:59.933Z,100982.88
2023-09-29T04:57:02.035Z,100982.55
2023-09-29T05:02:03.823Z,100980.63
2023-09-29T05:07:05.401Z,100986.10
2023-09-29T05:12:07.011Z,100993.96
2023-09-29T05:17:08.696Z,100998.17
2023-09-29T05:22:10.408Z,100996.52
2023-09-29T05:27:13.225Z,101001.10
2023-09-29T05:32:14.980Z,101002.52
2023-09-29T05:37:16.496Z,100999.63
2023-09-29T05:42:27.913Z,100995.86
2023-09-29T05:47:35.426Z,100995.13
2023-09-29T05:52:37.064Z,100991.64
2023-09-29T05:57:38.660Z,100997.09
2023-09-29T06:02:41.766Z,100996.72
2023-09-29T06:07:44.017Z,101001.17
2023-09-29T06:12:45.661Z,101000.80
2023-09-29T06:17:47.542Z,101004.38
2023-09-29T06:22:49.239Z,101003.58
2023-09-29T06:27:50.773Z,100998.29
2023-09-29T06:32:52.350Z,101003.05
2023-09-29T06:37:53.986Z,101004.14
2023-09-29T06:42:55.502Z,101004.29
2023-09-29T06:47:57.189Z,101005.55
2023-09-29T06:52:58.846Z,101006.80
2023-09-29T06:58:00.879Z,101011.54
2023-09-29T07:03:02.594Z,101013.31
2023-09-29T07:08:05.179Z,101019.40
2023-09-29T07:13:06.844Z,101021.50
2023-09-29T07:18:14.312Z,101021.96
2023-09-29T07:23:16.153Z,101025.52
2023-09-29T07:28:24.101Z,101022.47
2023-09-29T07:33:26.022Z,101021.45
2023-09-29T07:38:27.743Z,101026.77
2023-09-29T07:43:29.261Z,101025.09
2023-09-29T07:48:30.973Z,101024.67
2023-09-29T07:53:32.639Z,101019.18
2023-09-29T07:58:34.387Z,101017.66
2023-09-29T08:03:36.395Z,101016.73
2023-09-29T08:08:38.198Z,101013.17
2023-09-29T08:13:39.729Z,101008.06
2023-09-29T08:18:41.375Z,101005.98
2023-09-29T08:23:43.065Z,101008.89
2023-09-29T08:28:45.231Z,101007.02
2023-09-29T08:33:51.249Z,101009.63
2023-09-29T08:38:53.503Z,101016.20
2023-09-29T08:44:04.754Z,101015.73
2023-09-29T08:49:11.219Z,101020.34
2023-09-29T08:54:14.059Z,101010.42
2023-09-29T08:59:16.528Z,101007.80
2023-09-29T09:04:18.297Z,101006.05
2023-09-29T09:09:24.668Z,101000.44
2023-09-29T09:14:26.231Z,100995.93
2023-09-29T09:19:29.564Z,100988.38
2023-09-29T09:24:31.219Z,100986.27
2023-09-29T09:29:40.700Z,100986.70
2023-09-29T09:34:43.391Z,100986.14
2023-09-29T09:39:45.973Z,100984.14
2023-09-29T09:44:47.778Z,100986.65
2023-09-29T09:49:51.818Z,100981.70
2023-09-29T09:54:55.811Z,100981.21
2023-09-29T10:00:07.994Z,100976.96
2023-09-29T10:05:24.074Z,100974.61
2023-09-29T10:10:44.761Z,100973.09
2023-09-29T10:15:57.521Z,100967.83
2023-09-29T10:21:07.317Z,100961.54
2023-09-29T10:26:11.469Z,100960.75
2023-09-29T10:31:18.470Z,100958.94
2023-09-29T10:36:26.873Z,100952.83
2023-09-29T10:41:36.228Z,100948.91
2023-09-29T10:46:39.583Z,100943.77
2023-09-29T10:51:41.202Z,100936.73
2023-09-29T10:56:49.180Z,100930.79
2023-09-29T11:01:51.101Z,100926.45
2023-09-29T11:06:53.191Z,100921.77
2023-09-29T11:11:54.779Z,100914.25
2023-09-29T11:16:58.511Z,100910.70
2023-09-29T11:22:02.916Z,100903.11
2023-09-29T11:27:06.829Z,100898.84
2023-09-29T11:32:09.877Z,100897.25
2023-09-29T11:37:11.799Z,100892.39
2023-09-29T11:42:13.354Z,100884.86
2023-09-29T11:47:15.687Z,100875.42
2023-09-29T11:52:17.196Z,100872.16
2023-09-29T11:57:18.986Z,100867.48
2023-09-29T12:02:20.729Z,100863.79
2023-09-29T12:07:22.231Z,100854.13
2023-09-29T12:12:23.875Z,100850.50
2023-09-29T12:17:26.464Z,100844.02
2023-09-29T12:22:32.353Z,100842.91
2023-09-29T12:27:35.518Z,100833.89
2023-09-29T12:32:38.001Z,100829.40
2023-09-29T12:37:40.986Z,100821.09
2023-09-29T12:42:48.514Z,100816.27
2023-09-29T12:47:57.582Z,100812.48
2023-09-29T12:52:59.440Z,100807.71
2023-09-29T12:58:08.102Z,100805.99
2023-09-29T13:03:10.068Z,100802.48
2023-09-29T13:08:11.855Z,100799.47
2023-09-29T13:13:13.507Z,100791.38
2023-09-29T13:18:15.790Z,100787.86
2023-09-29T13:23:17.467Z,100785.40
2023-09-29T13:28:19.176Z,100780.80
2023-09-29T13:33:25.407Z,100776.56
2023-09-29T13:38:27.077Z,100770.29
2023-09-29T13:43:29.482Z,100764.58
2023-09-29T13:48:31.157Z,100758.15
2023-09-29T13:53:34.311Z,100754.20
2023-09-29T13:58:37.002Z,100750.00
2023-09-29T14:03:38.951Z,100746.54
2023-09-29T14:08:40.686Z,100742.23
2023-09-29T14:13:42.383Z,100742.46
2023-09-29T14:18:45.048Z,100732.96
2023-09-29T14:23:46.727Z,100732.32
2023-09-29T14:28:48.379Z,100724.70
2023-09-29T14:33:50.679Z,100716.52
2023-09-29T14:38:52.306Z,100717.75
2023-09-29T14:43:53.877Z,100712.06
2023-09-29T14:48:55.845Z,100714.23
2023-09-29T14:53:57.808Z,100711.27
2023-09-29T14:58:59.942Z,100711.68
2023-09-29T15:04:01.811Z,100712.45
2023-09-29T15:09:04.429Z,100708.67
2023-09-29T15:14:06.089Z,100707.27
2023-09-29T15:19:15.157Z,100700.64
2023-09-29T15:24:17.048Z,100706.45
2023-09-29T15:29:20.317Z,100706.41
2023-09-29T15:34:26.063Z,100705.89
2023-09-29T15:39:27.634Z,100706.56
2023-09-29T15:44:29.278Z,100705.02
2023-09-29T15:49:30.833Z,100706.95
2023-09-29T15:54:32.463Z,100711.34
2023-09-29T15:59:34.792Z,100712.58
2023-09-29T16:04:36.361Z,100711.41
2023-09-29T16:09:38.271Z,100714.92
2023-09-29T16:14:39.919Z,100716.02
2023-09-29T16:19:41.809Z,100718.67
2023-09-29T16:24:45.419Z,100721.42
2023-09-29T16:29:47.108Z,100722.33
2023-09-29T16:34:48.732Z,100722.59
2023-09-29T16:39:50.356Z,100722.98
2023-09-29T16:44:55.594Z,100724.02
2023-09-29T16:49:57.662Z,100722.75
2023-09-29T16:54:59.264Z,100723.02
2023-09-29T17:00:01.084Z,100722.73
2023-09-29T17:05:04.050Z,100723.63
2023-09-29T17:10:06.455Z,100722.10
2023-09-29T17:15:08.781Z,100719.61
2023-09-29T17:20:11.594Z,100715.88
2023-09-29T17:25:13.237Z,100713.84
2023-09-29T17:30:14.946Z,100710.98
2023-09-29T17:35:17.225Z,100710.84
2023-09-29T17:40:20.143Z,100710.54
2023-09-29T17:45:21.859Z,100710.00
2023-09-29T17:50:23.446Z,100709.46
2023-09-29T17:55:24.980Z,100709.48
2023-09-29T18:00:26.916Z,100706.02
2023-09-29T18:05:28.580Z,100707.05
2023-09-29T18:10:30.823Z,100706.91
2023-09-29T18:15:32.422Z,100707.77
2023-09-29T18:20:34.097Z,100710.88
2023-09-29T18:25:35.608Z,100710.75
2023-09-29T18:30:37.338Z,100707.48
2023-09-29T18:35:39.393Z,100707.46
2023-09-29T18:40:41.636Z,100707.69
2023-09-29T18:45:43.791Z,100705.55
2023-09-29T18:50:45.743Z,100706.13
2023-09-29T18:55:47.595Z,100703.85
2023-09-29T19:00:49.310Z,100702.96
2023-09-29T19:05:51.136Z,100696.41
2023-09-29T19:10:53.070Z,100700.47
2023-09-29T19:15:54.757Z,100700.09
2023-09-29T19:20:56.457Z,100693.73
2023-09-29T19:26:01.049Z,100692.89
2023-09-29T19:31:02.660Z,100695.27
2023-09-29T19:36:04.560Z,100691.16
2023-09-29T19:41:06.240Z,100693.13
2023-09-29T19:46:10.690Z,100694.08
2023-09-29T19:51:14.580Z,100688.98
2023-09-29T19:56:21.161Z,100690.16
2023-09-29T20:01:24.271Z,100685.85
2023-09-29T20:06:26.123Z,100686.95
2023-09-29T20:11:27.867Z,100686.16
2023-09-29T20:16:29.615Z,100684.64
2023-09-29T20:21:31.348Z,100683.81
2023-09-29T20:26:37.661Z,100681.52
2023-09-29T20:31:39.291Z,100679.73
2023-09-29T20:36:44.986Z,100675.50
2023-09-29T20:41:46.699Z,100675.45
2023-09-29T20:46:48.291Z,100673.11
2023-09-29T20:51:49.849Z,100672.33
2023-09-29T20:56:51.425Z,100671.20
2023-09-29T21:01:54.414Z,100671.41
2023-09-29T21:06:56.027Z,100672.67
2023-09-29T21:11:57.740Z,100671.73
2023-09-29T21:17:00.777Z,100672.00
2023-09-29T21:22:04.643Z,100669.88
2023-09-29T21:27:06.450Z,100675.40
2023-09-29T21:32:08.098Z,100676.45
2023-09-29T21:37:09.616Z,100676.26
2023-09-29T21:42:11.464Z,100677.80
2023-09-29T21:47:13.785Z,100671.90
2023-09-29T21:52:15.337Z,100671.27
2023-09-29T21:57:17.088Z,100669.70
2023-09-29T22:02:20.128Z,100664.54
2023-09-29T22:07:21.845Z,100661.49
2023-09-29T22:12:23.452Z,100657.38
2023-09-29T22:17:25.506Z,100660.14
2023-09-29T22:22:27.047Z,100658.30
2023-09-29T22:27:29.026Z,100652.66
2023-09-29T22:32:30.849Z,100648.95
2023-09-29T22:37:33.465Z,100647.10
2023-09-29T22:42:35.036Z,100643.63
2023-09-29T22:47:37.077Z,100645.50
2023-09-29T22:52:38.911Z,100641.66
2023-09-29T22:57:42.497Z,100638.39
2023-09-29T23:02:45.776Z,100637.05
2023-09-29T23:07:47.520Z,100636.73
2023-09-29T23:12:50.245Z,100630.63
2023-09-29T23:17:51.902Z,100629.65
2023-09-29T23:22:53.547Z,100630.27
2023-09-29T23:27:55.745Z,100628.11
2023-09-29T23:32:57.933Z,100623.25
2023-09-29T23:37:59.985Z,100624.99
2023-09-29T23:43:01.894Z,100617.25
2023-09-29T23:48:03.905Z,100614.17
2023-09-29T23:53:05.825Z,100610.55
2023-09-29T23:58:07.369Z,100614.68
